sensor_id;sensor_type;location;lat;lon;timestamp;pressure;altitude;pressure_sealevel;temperature;humidity
37792;BME280;29527;55.766;37.570;2022-07-01T00:00:47;99858.88;;;18.23;46.97
37792;BME280;29527;55.766;37.570;2022-07-01T00:03:13;99870.53;;;18.24;46.96
37792;BME280;29527;55.766;37.570;2022-07-01T00:05:38;99869.88;;;18.21;47.11
37792;BME280;29527;55.766;37.570;2022-07-01T00:08:04;99871.06;;;18.19;47.32
37792;BME280;29527;55.766;37.570;2022-07-01T00:10:30;99872.28;;;18.16;47.50
37792;BME280;29527;55.766;37.570;2022-07-01T00:12:55;99863.63;;;18.13;47.58
37792;BME280;29527;55.766;37.570;2022-07-01T00:15:21;99859.72;;;18.07;47.52
37792;BME280;29527;55.766;37.570;2022-07-01T00:17:48;99878.53;;;18.08;47.67
37792;BME280;29527;55.766;37.570;2022-07-01T00:20:13;99866.53;;;18.03;47.63
37792;BME280;29527;55.766;37.570;2022-07-01T00:22:40;99868.41;;;18.02;48.07
37792;BME280;29527;55.766;37.570;2022-07-01T00:25:06;99876.53;;;18.02;48.04
37792;BME280;29527;55.766;37.570;2022-07-01T00:27:31;99862.78;;;17.96;48.19
37792;BME280;29527;55.766;37.570;2022-07-01T00:29:57;99864.81;;;18.02;48.12
37792;BME280;29527;55.766;37.570;2022-07-01T00:32:23;99863.63;;;17.96;48.41
37792;BME280;29527;55.766;37.570;2022-07-01T00:34:49;99868.88;;;17.98;48.35
37792;BME280;29527;55.766;37.570;2022-07-01T00:37:14;99848.22;;;17.80;48.57
37792;BME280;29527;55.766;37.570;2022-07-01T00:39:40;99864.81;;;17.93;49.09
37792;BME280;29527;55.766;37.570;2022-07-01T00:42:05;99864.81;;;17.93;48.78
37792;BME280;29527;55.766;37.570;2022-07-01T00:44:31;99862.63;;;17.89;48.92
37792;BME280;29527;55.766;37.570;2022-07-01T00:47:00;99871.06;;;17.94;48.63
37792;BME280;29527;55.766;37.570;2022-07-01T00:49:27;99816.94;;;17.61;48.61
37792;BME280;29527;55.766;37.570;2022-07-01T00:51:53;99859.91;;;17.89;48.72
37792;BME280;29527;55.766;37.570;2022-07-01T00:54:20;99872.97;;;18.02;48.61
37792;BME280;29527;55.766;37.570;2022-07-01T00:56:46;99866.00;;;17.99;48.71
37792;BME280;29527;55.766;37.570;2022-07-01T00:59:13;99860.09;;;17.87;48.81
37792;BME280;29527;55.766;37.570;2022-07-01T01:01:38;99870.41;;;17.92;48.96
37792;BME280;29527;55.766;37.570;2022-07-01T01:04:04;99877.00;;;17.89;49.16
37792;BME280;29527;55.766;37.570;2022-07-01T01:06:31;99873.94;;;17.84;49.22
37792;BME280;29527;55.766;37.570;2022-07-01T01:08:56;99791.41;;;17.30;49.44
37792;BME280;29527;55.766;37.570;2022-07-01T01:11:22;99878.38;;;17.77;49.50
37792;BME280;29527;55.766;37.570;2022-07-01T01:13:48;99880.41;;;17.75;49.62
37792;BME280;29527;55.766;37.570;2022-07-01T01:16:18;99887.16;;;17.79;49.56
37792;BME280;29527;55.766;37.570;2022-07-01T01:18:43;99871.28;;;17.68;49.67
37792;BME280;29527;55.766;37.570;2022-07-01T01:21:09;99882.78;;;17.70;50.12
37792;BME280;29527;55.766;37.570;2022-07-01T01:23:34;99883.78;;;17.69;50.17
37792;BME280;29527;55.766;37.570;2022-07-01T01:26:00;99883.78;;;17.69;50.22
37792;BME280;29527;55.766;37.570;2022-07-01T01:28:27;99883.94;;;17.67;50.20
37792;BME280;29527;55.766;37.570;2022-07-01T01:30:53;99879.56;;;17.58;50.29
37792;BME280;29527;55.766;37.570;2022-07-01T01:33:18;99887.00;;;17.64;50.25
37792;BME280;29527;55.766;37.570;2022-07-01T01:35:44;99878.53;;;17.59;50.03
37792;BME280;29527;55.766;37.570;2022-07-01T01:38:09;99881.91;;;17.61;50.17
37792;BME280;29527;55.766;37.570;2022-07-01T01:40:35;99885.50;;;17.61;50.16
37792;BME280;29527;55.766;37.570;2022-07-01T01:43:00;99878.53;;;17.59;50.25
37792;BME280;29527;55.766;37.570;2022-07-01T01:45:26;99887.19;;;17.62;50.19
37792;BME280;29527;55.766;37.570;2022-07-01T01:47:52;99883.47;;;17.63;50.35
37792;BME280;29527;55.766;37.570;2022-07-01T01:50:17;99885.16;;;17.64;50.26
37792;BME280;29527;55.766;37.570;2022-07-01T01:52:45;99882.94;;;17.60;49.94
37792;BME280;29527;55.766;37.570;2022-07-01T01:55:10;99854.50;;;17.47;49.72
37792;BME280;29527;55.766;37.570;2022-07-01T01:57:36;99857.91;;;17.49;49.98
37792;BME280;29527;55.766;37.570;2022-07-01T02:00:03;99900.03;;;17.69;49.68
37792;BME280;29527;55.766;37.570;2022-07-01T02:02:29;99896.13;;;17.71;49.66
37792;BME280;29527;55.766;37.570;2022-07-01T02:04:55;99898.53;;;17.74;49.21
37792;BME280;29527;55.766;37.570;2022-07-01T02:07:21;99893.94;;;17.75;49.06
37792;BME280;29527;55.766;37.570;2022-07-01T02:09:46;99894.59;;;17.77;49.21
37792;BME280;29527;55.766;37.570;2022-07-01T02:12:11;99905.97;;;17.81;48.97
37792;BME280;29527;55.766;37.570;2022-07-01T02:14:37;99898.66;;;17.81;48.70
37792;BME280;29527;55.766;37.570;2022-07-01T02:17:03;99906.44;;;17.84;48.88
37792;BME280;29527;55.766;37.570;2022-07-01T02:19:28;99900.03;;;17.93;48.63
37792;BME280;29527;55.766;37.570;2022-07-01T02:21:54;99904.47;;;18.11;47.82
37792;BME280;29527;55.766;37.570;2022-07-01T02:24:19;99880.75;;;18.13;47.56
37792;BME280;29527;55.766;37.570;2022-07-01T02:26:45;99883.88;;;18.42;46.71
37792;BME280;29527;55.766;37.570;2022-07-01T02:29:10;99913.47;;;18.68;46.13
37792;BME280;29527;55.766;37.570;2022-07-01T02:31:36;99926.78;;;18.86;45.61
37792;BME280;29527;55.766;37.570;2022-07-01T02:34:01;99905.72;;;19.05;44.17
37792;BME280;29527;55.766;37.570;2022-07-01T02:36:27;99929.28;;;19.36;43.74
37792;BME280;29527;55.766;37.570;2022-07-01T02:38:53;99906.81;;;19.89;40.16
37792;BME280;29527;55.766;37.570;2022-07-01T02:41:18;99925.19;;;20.10;39.71
37792;BME280;29527;55.766;37.570;2022-07-01T02:43:44;99914.84;;;20.29;38.93
37792;BME280;29527;55.766;37.570;2022-07-01T02:46:09;99939.13;;;20.60;38.24
37792;BME280;29527;55.766;37.570;2022-07-01T02:48:35;99941.94;;;20.67;37.64
37792;BME280;29527;55.766;37.570;2022-07-01T02:51:01;99944.31;;;20.85;37.32
37792;BME280;29527;55.766;37.570;2022-07-01T02:53:26;99943.34;;;20.63;37.67
37792;BME280;29527;55.766;37.570;2022-07-01T02:55:52;99945.50;;;20.53;37.73
37792;BME280;29527;55.766;37.570;2022-07-01T02:58:17;99952.00;;;20.51;37.60
37792;BME280;29527;55.766;37.570;2022-07-01T03:00:43;99937.69;;;20.49;37.66
37792;BME280;29527;55.766;37.570;2022-07-01T03:03:09;99954.38;;;20.85;37.34
37792;BME280;29527;55.766;37.570;2022-07-01T03:05:34;99951.00;;;21.34;35.65
37792;BME280;29527;55.766;37.570;2022-07-01T03:08:00;99960.63;;;21.67;35.43
37792;BME280;29527;55.766;37.570;2022-07-01T03:10:25;99960.66;;;22.17;34.11
37792;BME280;29527;55.766;37.570;2022-07-01T03:12:51;99967.38;;;22.43;33.58
37792;BME280;29527;55.766;37.570;2022-07-01T03:15:17;99969.28;;;22.71;32.84
37792;BME280;29527;55.766;37.570;2022-07-01T03:17:44;99963.81;;;22.71;33.17
37792;BME280;29527;55.766;37.570;2022-07-01T03:20:13;99975.25;;;22.88;32.87
37792;BME280;29527;55.766;37.570;2022-07-01T03:22:39;99968.44;;;23.19;32.47
37792;BME280;29527;55.766;37.570;2022-07-01T03:25:06;99970.28;;;23.54;31.69
37792;BME280;29527;55.766;37.570;2022-07-01T03:27:32;99966.81;;;23.87;30.55
37792;BME280;29527;55.766;37.570;2022-07-01T03:29:57;99935.22;;;23.98;30.29
37792;BME280;29527;55.766;37.570;2022-07-01T03:32:23;99968.50;;;24.22;30.20
37792;BME280;29527;55.766;37.570;2022-07-01T03:34:51;99967.03;;;24.33;30.00
37792;BME280;29527;55.766;37.570;2022-07-01T03:37:18;99976.25;;;24.65;29.52
37792;BME280;29527;55.766;37.570;2022-07-01T03:39:44;99963.16;;;25.01;28.81
37792;BME280;29527;55.766;37.570;2022-07-01T03:42:10;99977.16;;;25.32;28.25
37792;BME280;29527;55.766;37.570;2022-07-01T03:44:37;99983.72;;;25.70;27.82
37792;BME280;29527;55.766;37.570;2022-07-01T03:47:04;99978.69;;;25.99;26.94
37792;BME280;29527;55.766;37.570;2022-07-01T03:49:34;99984.94;;;26.38;26.04
37792;BME280;29527;55.766;37.570;2022-07-01T03:51:59;99980.88;;;26.66;25.08
37792;BME280;29527;55.766;37.570;2022-07-01T03:54:25;99983.38;;;27.12;24.35
37792;BME280;29527;55.766;37.570;2022-07-01T03:57:09;99971.28;;;27.92;23.35
37792;BME280;29527;55.766;37.570;2022-07-01T03:59:37;99995.34;;;28.28;22.54
37792;BME280;29527;55.766;37.570;2022-07-01T04:02:03;99983.97;;;28.60;22.22
37792;BME280;29527;55.766;37.570;2022-07-01T04:04:29;99960.84;;;28.73;21.47
37792;BME280;29527;55.766;37.570;2022-07-01T04:06:57;99993.63;;;29.22;21.20
37792;BME280;29527;55.766;37.570;2022-07-01T04:09:23;99995.78;;;29.20;20.38
37792;BME280;29527;55.766;37.570;2022-07-01T04:11:50;100001.28;;;29.44;20.39
37792;BME280;29527;55.766;37.570;2022-07-01T04:14:16;99988.06;;;29.75;20.24
37792;BME280;29527;55.766;37.570;2022-07-01T04:16:42;100012.81;;;30.16;19.59
37792;BME280;29527;55.766;37.570;2022-07-01T04:19:09;100003.63;;;30.61;19.44
37792;BME280;29527;55.766;37.570;2022-07-01T04:21:35;100003.38;;;31.02;18.37
37792;BME280;29527;55.766;37.570;2022-07-01T04:24:19;100003.56;;;31.62;17.95
37792;BME280;29527;55.766;37.570;2022-07-01T04:26:45;100005.25;;;32.51;17.00
37792;BME280;29527;55.766;37.570;2022-07-01T04:29:11;100020.09;;;33.26;16.51
37792;BME280;29527;55.766;37.570;2022-07-01T04:31:37;100020.22;;;33.46;15.73
37792;BME280;29527;55.766;37.570;2022-07-01T04:34:04;100014.47;;;33.84;15.51
37792;BME280;29527;55.766;37.570;2022-07-01T04:36:30;100012.28;;;33.97;15.08
37792;BME280;29527;55.766;37.570;2022-07-01T04:38:56;100013.63;;;33.78;14.85
37792;BME280;29527;55.766;37.570;2022-07-01T04:41:22;99992.72;;;32.43;15.29
37792;BME280;29527;55.766;37.570;2022-07-01T04:44:06;100028.50;;;32.88;15.77
37792;BME280;29527;55.766;37.570;2022-07-01T04:46:31;100012.47;;;33.64;15.13
37792;BME280;29527;55.766;37.570;2022-07-01T04:48:57;100025.09;;;34.29;14.77
37792;BME280;29527;55.766;37.570;2022-07-01T04:51:23;100020.28;;;34.97;13.83
37792;BME280;29527;55.766;37.570;2022-07-01T04:53:48;100028.88;;;35.11;13.79
37792;BME280;29527;55.766;37.570;2022-07-01T04:56:14;100026.97;;;35.67;13.24
37792;BME280;29527;55.766;37.570;2022-07-01T04:58:40;100029.28;;;36.34;12.70
37792;BME280;29527;55.766;37.570;2022-07-01T05:01:05;100024.69;;;37.32;11.89
37792;BME280;29527;55.766;37.570;2022-07-01T05:03:31;100029.19;;;38.43;11.34
37792;BME280;29527;55.766;37.570;2022-07-01T05:05:57;100041.16;;;39.10;10.64
37792;BME280;29527;55.766;37.570;2022-07-01T05:08:23;100012.94;;;39.71;9.92
37792;BME280;29527;55.766;37.570;2022-07-01T05:10:48;100027.78;;;40.08;9.46
37792;BME280;29527;55.766;37.570;2022-07-01T05:13:14;100035.75;;;39.78;9.62
37792;BME280;29527;55.766;37.570;2022-07-01T05:15:39;100036.31;;;40.03;9.85
37792;BME280;29527;55.766;37.570;2022-07-01T05:18:05;100025.56;;;39.96;9.72
37792;BME280;29527;55.766;37.570;2022-07-01T05:20:49;100024.78;;;39.68;9.56
37792;BME280;29527;55.766;37.570;2022-07-01T05:23:33;100030.91;;;39.70;9.78
37792;BME280;29527;55.766;37.570;2022-07-01T05:25:58;100030.25;;;40.10;8.98
37792;BME280;29527;55.766;37.570;2022-07-01T05:28:24;100029.03;;;40.47;8.93
37792;BME280;29527;55.766;37.570;2022-07-01T05:30:49;100030.59;;;40.08;8.64
37792;BME280;29527;55.766;37.570;2022-07-01T05:33:15;100019.31;;;39.99;9.01
37792;BME280;29527;55.766;37.570;2022-07-01T05:35:40;100021.41;;;39.94;9.44
37792;BME280;29527;55.766;37.570;2022-07-01T05:38:06;100026.22;;;40.16;9.02
37792;BME280;29527;55.766;37.570;2022-07-01T05:40:31;100009.34;;;40.30;8.52
37792;BME280;29527;55.766;37.570;2022-07-01T05:42:57;100021.41;;;41.02;8.45
37792;BME280;29527;55.766;37.570;2022-07-01T05:45:23;100032.94;;;41.50;8.20
37792;BME280;29527;55.766;37.570;2022-07-01T05:47:48;100029.66;;;42.45;7.84
37792;BME280;29527;55.766;37.570;2022-07-01T05:50:14;100027.44;;;43.37;7.22
37792;BME280;29527;55.766;37.570;2022-07-01T05:52:41;100033.69;;;43.73;6.65
37792;BME280;29527;55.766;37.570;2022-07-01T05:55:08;100036.47;;;43.94;6.47
37792;BME280;29527;55.766;37.570;2022-07-01T05:57:33;100020.63;;;44.02;6.81
37792;BME280;29527;55.766;37.570;2022-07-01T05:59:59;100041.41;;;44.19;6.24
37792;BME280;29527;55.766;37.570;2022-07-01T06:02:24;100005.63;;;44.10;6.42
37792;BME280;29527;55.766;37.570;2022-07-01T06:04:49;100026.53;;;44.09;6.17
37792;BME280;29527;55.766;37.570;2022-07-01T06:07:15;100017.31;;;44.55;6.12
37792;BME280;29527;55.766;37.570;2022-07-01T06:09:40;100015.91;;;44.73;6.03
37792;BME280;29527;55.766;37.570;2022-07-01T06:12:06;100023.34;;;45.15;5.80
37792;BME280;29527;55.766;37.570;2022-07-01T06:14:32;100023.72;;;45.01;5.97
37792;BME280;29527;55.766;37.570;2022-07-01T06:16:57;100028.00;;;45.73;5.75
37792;BME280;29527;55.766;37.570;2022-07-01T06:19:23;100017.97;;;46.33;5.22
37792;BME280;29527;55.766;37.570;2022-07-01T06:21:49;100009.69;;;45.71;5.29
37792;BME280;29527;55.766;37.570;2022-07-01T06:24:14;100025.59;;;45.35;5.43
37792;BME280;29527;55.766;37.570;2022-07-01T06:26:40;100021.50;;;45.73;5.22
37792;BME280;29527;55.766;37.570;2022-07-01T06:29:06;100025.78;;;45.54;4.96
37792;BME280;29527;55.766;37.570;2022-07-01T06:31:31;100020.31;;;45.74;5.22
37792;BME280;29527;55.766;37.570;2022-07-01T06:34:00;100036.09;;;45.75;5.21
37792;BME280;29527;55.766;37.570;2022-07-01T06:36:26;100013.66;;;44.67;4.74
37792;BME280;29527;55.766;37.570;2022-07-01T06:38:51;100036.22;;;43.87;5.02
37792;BME280;29527;55.766;37.570;2022-07-01T06:41:17;100040.84;;;43.40;4.65
37792;BME280;29527;55.766;37.570;2022-07-01T06:43:56;100045.44;;;42.76;5.71
37792;BME280;29527;55.766;37.570;2022-07-01T06:46:22;100016.56;;;42.31;5.58
37792;BME280;29527;55.766;37.570;2022-07-01T06:48:48;100028.81;;;43.52;5.51
37792;BME280;29527;55.766;37.570;2022-07-01T06:51:13;100035.97;;;44.93;4.62
37792;BME280;29527;55.766;37.570;2022-07-01T06:53:39;100033.38;;;45.38;4.64
37792;BME280;29527;55.766;37.570;2022-07-01T06:56:05;100049.81;;;45.48;4.85
37792;BME280;29527;55.766;37.570;2022-07-01T06:58:31;100055.13;;;46.48;4.35
37792;BME280;29527;55.766;37.570;2022-07-01T07:00:56;100055.09;;;46.92;3.62
37792;BME280;29527;55.766;37.570;2022-07-01T07:03:22;100056.16;;;47.20;3.49
37792;BME280;29527;55.766;37.570;2022-07-01T07:05:48;100047.81;;;47.43;3.13
37792;BME280;29527;55.766;37.570;2022-07-01T07:08:14;100049.44;;;47.80;2.79
37792;BME280;29527;55.766;37.570;2022-07-01T07:10:39;100050.41;;;48.27;2.81
37792;BME280;29527;55.766;37.570;2022-07-01T07:13:05;100050.66;;;48.84;2.29
37792;BME280;29527;55.766;37.570;2022-07-01T07:15:31;100046.66;;;49.16;2.06
37792;BME280;29527;55.766;37.570;2022-07-01T07:17:56;100027.34;;;48.52;2.20
37792;BME280;29527;55.766;37.570;2022-07-01T07:20:25;100061.78;;;49.20;2.32
37792;BME280;29527;55.766;37.570;2022-07-01T07:22:51;100066.34;;;49.02;2.14
37792;BME280;29527;55.766;37.570;2022-07-01T07:25:17;100031.53;;;49.08;2.27
37792;BME280;29527;55.766;37.570;2022-07-01T07:27:43;100047.41;;;49.40;1.80
37792;BME280;29527;55.766;37.570;2022-07-01T07:30:15;100057.78;;;49.25;1.97
37792;BME280;29527;55.766;37.570;2022-07-01T07:32:41;100020.06;;;49.59;2.02
37792;BME280;29527;55.766;37.570;2022-07-01T07:35:08;100054.78;;;50.02;1.85
37792;BME280;29527;55.766;37.570;2022-07-01T07:37:33;100035.59;;;49.65;2.00
37792;BME280;29527;55.766;37.570;2022-07-01T07:40:00;100039.31;;;48.88;1.62
37792;BME280;29527;55.766;37.570;2022-07-01T07:42:27;100064.16;;;49.45;1.96
37792;BME280;29527;55.766;37.570;2022-07-01T07:44:53;100043.34;;;49.98;1.63
37792;BME280;29527;55.766;37.570;2022-07-01T07:47:18;100062.47;;;50.36;1.78
37792;BME280;29527;55.766;37.570;2022-07-01T07:49:44;100068.59;;;50.38;1.68
37792;BME280;29527;55.766;37.570;2022-07-01T07:52:09;100079.78;;;50.58;1.32
37792;BME280;29527;55.766;37.570;2022-07-01T07:54:35;100070.19;;;50.77;1.38
37792;BME280;29527;55.766;37.570;2022-07-01T07:57:00;100067.78;;;51.35;1.43
37792;BME280;29527;55.766;37.570;2022-07-01T07:59:26;100072.03;;;51.63;1.28
37792;BME280;29527;55.766;37.570;2022-07-01T08:01:51;100067.63;;;51.83;1.15
37792;BME280;29527;55.766;37.570;2022-07-01T08:04:17;100074.06;;;51.62;1.15
37792;BME280;29527;55.766;37.570;2022-07-01T08:06:42;100072.03;;;51.00;1.46
37792;BME280;29527;55.766;37.570;2022-07-01T08:09:08;100054.69;;;49.64;1.61
37792;BME280;29527;55.766;37.570;2022-07-01T08:11:33;100064.81;;;48.61;1.88
37792;BME280;29527;55.766;37.570;2022-07-01T08:13:59;100067.44;;;47.52;2.71
37792;BME280;29527;55.766;37.570;2022-07-01T08:16:24;100068.91;;;46.94;2.99
37792;BME280;29527;55.766;37.570;2022-07-01T08:18:50;100073.81;;;46.81;2.85
37792;BME280;29527;55.766;37.570;2022-07-01T08:21:15;100094.06;;;45.69;3.46
37792;BME280;29527;55.766;37.570;2022-07-01T08:23:41;100085.72;;;43.76;4.25
37792;BME280;29527;55.766;37.570;2022-07-01T08:26:07;100074.31;;;42.38;4.75
37792;BME280;29527;55.766;37.570;2022-07-01T08:28:32;100095.94;;;39.95;5.58
37792;BME280;29527;55.766;37.570;2022-07-01T08:30:58;100103.31;;;36.85;7.70
37792;BME280;29527;55.766;37.570;2022-07-01T08:33:23;100082.31;;;34.04;9.33
37792;BME280;29527;55.766;37.570;2022-07-01T08:35:49;100100.81;;;32.21;10.11
37792;BME280;29527;55.766;37.570;2022-07-01T08:38:14;100071.31;;;29.72;12.18
37792;BME280;29527;55.766;37.570;2022-07-01T08:40:40;100096.53;;;28.68;13.81
37792;BME280;29527;55.766;37.570;2022-07-01T08:43:06;100104.47;;;27.73;14.86
37792;BME280;29527;55.766;37.570;2022-07-01T08:45:33;100083.69;;;27.02;15.46
37792;BME280;29527;55.766;37.570;2022-07-01T08:48:00;100102.44;;;26.55;15.99
37792;BME280;29527;55.766;37.570;2022-07-01T08:50:30;100101.19;;;26.18;16.54
37792;BME280;29527;55.766;37.570;2022-07-01T08:52:56;100099.56;;;26.04;16.62
37792;BME280;29527;55.766;37.570;2022-07-01T08:55:23;100108.91;;;25.96;16.13
37792;BME280;29527;55.766;37.570;2022-07-01T08:57:49;100098.53;;;25.53;17.73
37792;BME280;29527;55.766;37.570;2022-07-01T09:00:15;100099.41;;;25.26;17.36
37792;BME280;29527;55.766;37.570;2022-07-01T09:02:59;100098.34;;;25.27;16.88
37792;BME280;29527;55.766;37.570;2022-07-01T09:05:27;100111.66;;;25.03;17.84
37792;BME280;29527;55.766;37.570;2022-07-01T09:08:01;100119.69;;;25.12;17.14
37792;BME280;29527;55.766;37.570;2022-07-01T09:10:28;100098.59;;;25.12;17.94
37792;BME280;29527;55.766;37.570;2022-07-01T09:12:56;100097.34;;;25.08;17.76
37792;BME280;29527;55.766;37.570;2022-07-01T09:15:29;100109.78;;;25.04;17.94
37792;BME280;29527;55.766;37.570;2022-07-01T09:18:12;100105.81;;;25.00;17.51
37792;BME280;29527;55.766;37.570;2022-07-01T09:20:44;100113.81;;;24.81;17.06
37792;BME280;29527;55.766;37.570;2022-07-01T09:23:14;100119.25;;;24.68;17.41
37792;BME280;29527;55.766;37.570;2022-07-01T09:25:45;100118.81;;;24.57;17.58
37792;BME280;29527;55.766;37.570;2022-07-01T09:28:24;100119.66;;;24.64;17.42
37792;BME280;29527;55.766;37.570;2022-07-01T09:30:52;100086.38;;;24.41;17.47
37792;BME280;29527;55.766;37.570;2022-07-01T09:33:19;100113.53;;;24.56;17.03
37792;BME280;29527;55.766;37.570;2022-07-01T09:35:47;100124.66;;;24.34;17.71
37792;BME280;29527;55.766;37.570;2022-07-01T09:38:16;100107.38;;;24.06;18.16
37792;BME280;29527;55.766;37.570;2022-07-01T09:48:17;100114.72;;;24.06;18.38
37792;BME280;29527;55.766;37.570;2022-07-01T09:50:43;100111.19;;;24.12;18.05
37792;BME280;29527;55.766;37.570;2022-07-01T09:53:09;100121.69;;;24.22;17.82
37792;BME280;29527;55.766;37.570;2022-07-01T09:55:36;100119.19;;;24.34;17.18
37792;BME280;29527;55.766;37.570;2022-07-01T09:58:01;100119.13;;;24.07;17.94
37792;BME280;29527;55.766;37.570;2022-07-01T10:00:28;100128.41;;;24.06;17.59
37792;BME280;29527;55.766;37.570;2022-07-01T10:02:57;100140.81;;;24.02;17.30
37792;BME280;29527;55.766;37.570;2022-07-01T10:05:23;100123.28;;;23.89;17.05
37792;BME280;29527;55.766;37.570;2022-07-01T10:13:26;100129.09;;;23.73;17.14
37792;BME280;29527;55.766;37.570;2022-07-01T10:15:55;100093.28;;;23.61;17.13
37792;BME280;29527;55.766;37.570;2022-07-01T10:18:26;100119.38;;;23.63;17.85
37792;BME280;29527;55.766;37.570;2022-07-01T10:20:53;100125.66;;;23.57;17.75
37792;BME280;29527;55.766;37.570;2022-07-01T10:23:22;100136.00;;;23.69;17.56
37792;BME280;29527;55.766;37.570;2022-07-01T10:25:52;100132.00;;;23.64;17.54
37792;BME280;29527;55.766;37.570;2022-07-01T10:28:22;100125.28;;;23.67;17.53
37792;BME280;29527;55.766;37.570;2022-07-01T10:30:59;100127.78;;;23.62;18.16
37792;BME280;29527;55.766;37.570;2022-07-01T10:41:29;100119.75;;;23.54;18.19
37792;BME280;29527;55.766;37.570;2022-07-01T10:43:55;100136.28;;;23.45;18.77
37792;BME280;29527;55.766;37.570;2022-07-01T12:28:05;100137.38;;;23.16;18.95
37792;BME280;29527;55.766;37.570;2022-07-01T12:30:30;100123.72;;;23.16;18.93
37792;BME280;29527;55.766;37.570;2022-07-01T12:33:10;100132.66;;;23.31;18.61
37792;BME280;29527;55.766;37.570;2022-07-01T12:35:39;100147.88;;;23.19;19.15
37792;BME280;29527;55.766;37.570;2022-07-01T12:38:15;100143.47;;;23.18;18.88
37792;BME280;29527;55.766;37.570;2022-07-01T12:40:59;100136.97;;;23.19;18.32
37792;BME280;29527;55.766;37.570;2022-07-01T12:43:30;100143.56;;;23.31;17.86
37792;BME280;29527;55.766;37.570;2022-07-01T12:45:58;100102.03;;;22.86;18.58
37792;BME280;29527;55.766;37.570;2022-07-01T12:48:24;100148.31;;;23.22;17.43
37792;BME280;29527;55.766;37.570;2022-07-01T12:50:57;100146.56;;;23.15;17.49
37792;BME280;29527;55.766;37.570;2022-07-01T12:53:24;100158.97;;;22.89;17.44
37792;BME280;29527;55.766;37.570;2022-07-01T12:55:54;100157.66;;;23.06;17.34
37792;BME280;29527;55.766;37.570;2022-07-01T12:58:22;100155.63;;;23.15;17.28
37792;BME280;29527;55.766;37.570;2022-07-01T13:00:50;100167.09;;;23.04;17.53
37792;BME280;29527;55.766;37.570;2022-07-01T13:03:21;100139.88;;;22.89;17.86
37792;BME280;29527;55.766;37.570;2022-07-01T13:05:48;100151.84;;;22.66;18.61
37792;BME280;29527;55.766;37.570;2022-07-01T13:08:13;100133.09;;;22.56;18.61
37792;BME280;29527;55.766;37.570;2022-07-01T13:10:39;100142.41;;;22.90;17.34
37792;BME280;29527;55.766;37.570;2022-07-01T13:13:05;100154.84;;;22.71;17.76
37792;BME280;29527;55.766;37.570;2022-07-01T13:15:31;100161.06;;;22.65;18.25
37792;BME280;29527;55.766;37.570;2022-07-01T13:17:57;100157.66;;;22.56;18.54
37792;BME280;29527;55.766;37.570;2022-07-01T13:20:23;100148.09;;;22.67;18.18
37792;BME280;29527;55.766;37.570;2022-07-01T13:22:49;100146.44;;;22.73;17.39
37792;BME280;29527;55.766;37.570;2022-07-01T13:25:15;100159.69;;;22.76;16.98
37792;BME280;29527;55.766;37.570;2022-07-01T13:27:40;100161.03;;;22.80;17.33
37792;BME280;29527;55.766;37.570;2022-07-01T13:30:09;100168.91;;;22.68;17.35
37792;BME280;29527;55.766;37.570;2022-07-01T13:32:36;100179.28;;;22.58;17.97
37792;BME280;29527;55.766;37.570;2022-07-01T13:35:03;100163.28;;;22.76;17.46
37792;BME280;29527;55.766;37.570;2022-07-01T13:37:29;100173.56;;;22.53;17.73
37792;BME280;29527;55.766;37.570;2022-07-01T13:39:54;100161.53;;;22.47;17.68
37792;BME280;29527;55.766;37.570;2022-07-01T13:42:20;100161.34;;;22.48;17.68
37792;BME280;29527;55.766;37.570;2022-07-01T13:44:45;100180.50;;;22.77;16.86
37792;BME280;29527;55.766;37.570;2022-07-01T13:47:11;100170.94;;;22.66;17.08
37792;BME280;29527;55.766;37.570;2022-07-01T13:49:39;100183.75;;;22.65;17.45
37792;BME280;29527;55.766;37.570;2022-07-01T13:52:07;100188.63;;;22.48;17.79
37792;BME280;29527;55.766;37.570;2022-07-01T13:54:34;100184.88;;;22.71;17.55
37792;BME280;29527;55.766;37.570;2022-07-01T13:56:59;100188.91;;;22.39;18.32
37792;BME280;29527;55.766;37.570;2022-07-01T13:59:25;100165.88;;;22.26;18.35
37792;BME280;29527;55.766;37.570;2022-07-01T14:01:51;100175.88;;;22.19;19.20
37792;BME280;29527;55.766;37.570;2022-07-01T14:04:16;100184.75;;;22.06;19.55
37792;BME280;29527;55.766;37.570;2022-07-01T14:06:42;100184.28;;;22.02;19.01
37792;BME280;29527;55.766;37.570;2022-07-01T14:09:07;100180.50;;;22.03;19.40
37792;BME280;29527;55.766;37.570;2022-07-01T14:11:33;100174.94;;;22.27;19.29
37792;BME280;29527;55.766;37.570;2022-07-01T14:13:58;100189.34;;;22.42;18.64
37792;BME280;29527;55.766;37.570;2022-07-01T14:16:24;100196.44;;;22.36;19.00
37792;BME280;29527;55.766;37.570;2022-07-01T14:18:50;100184.31;;;22.24;18.85
37792;BME280;29527;55.766;37.570;2022-07-01T14:21:18;100183.22;;;22.18;19.45
37792;BME280;29527;55.766;37.570;2022-07-01T14:23:44;100178.00;;;22.39;18.62
37792;BME280;29527;55.766;37.570;2022-07-01T14:26:09;100185.50;;;22.51;18.34
37792;BME280;29527;55.766;37.570;2022-07-01T14:28:35;100182.47;;;22.25;19.02
37792;BME280;29527;55.766;37.570;2022-07-01T14:31:01;100188.31;;;22.21;19.03
37792;BME280;29527;55.766;37.570;2022-07-01T14:33:27;100175.88;;;22.19;19.10
37792;BME280;29527;55.766;37.570;2022-07-01T14:35:52;100184.75;;;22.06;19.45
37792;BME280;29527;55.766;37.570;2022-07-01T14:38:17;100185.06;;;22.33;18.43
37792;BME280;29527;55.766;37.570;2022-07-01T14:40:43;100189.00;;;22.08;19.49
37792;BME280;29527;55.766;37.570;2022-07-01T14:43:09;100158.72;;;21.88;19.34
37792;BME280;29527;55.766;37.570;2022-07-01T14:45:34;100173.31;;;21.96;19.66